createdAt,value
2022-10-07T00:00:01.660Z,13.09
2022-10-07T00:02:31.072Z,13.11
2022-10-07T00:04:58.195Z,13.07
2022-10-07T00:07:25.168Z,13.06
2022-10-07T00:09:51.984Z,13.09
2022-10-07T00:12:20.325Z,12.98
2022-10-07T00:14:47.125Z,13.00
2022-10-07T00:17:14.169Z,13.07
2022-10-07T00:19:40.984Z,13.07
2022-10-07T00:22:07.786Z,13.08
2022-10-07T00:24:34.892Z,13.09
2022-10-07T00:27:01.852Z,13.10
2022-10-07T00:29:29.997Z,13.10
2022-10-07T00:31:57.427Z,13.09
2022-10-07T00:34:25.139Z,13.09
2022-10-07T00:36:51.917Z,13.08
2022-10-07T00:39:19.355Z,13.10
2022-10-07T00:41:50.711Z,13.12
2022-10-07T00:44:43.035Z,13.15
2022-10-07T00:47:23.992Z,13.13
2022-10-07T00:49:58.126Z,13.13
2022-10-07T00:52:29.148Z,13.08
2022-10-07T00:55:01.175Z,13.04
2022-10-07T00:57:32.154Z,13.02
2022-10-07T01:00:02.164Z,13.02
2022-10-07T01:02:29.161Z,13.04
2022-10-07T01:04:59.970Z,13.06
2022-10-07T01:07:28.688Z,13.09
2022-10-07T01:09:59.205Z,13.13
2022-10-07T01:12:44.470Z,13.16
2022-10-07T01:15:28.708Z,13.19
2022-10-07T01:18:08.763Z,13.20
2022-10-07T01:20:43.967Z,13.22
2022-10-07T01:23:39.189Z,13.19
2022-10-07T01:27:03.674Z,13.15
2022-10-07T01:29:39.497Z,13.16
2022-10-07T01:32:15.503Z,13.17
2022-10-07T01:34:46.517Z,13.19
2022-10-07T01:37:19.944Z,13.20
2022-10-07T01:39:53.288Z,13.15
2022-10-07T01:42:23.542Z,12.98
2022-10-07T01:44:56.629Z,12.89
2022-10-07T01:47:25.849Z,12.83
2022-10-07T01:49:52.871Z,12.87
2022-10-07T01:52:57.216Z,12.92
2022-10-07T01:55:49.874Z,12.92
2022-10-07T01:58:38.517Z,12.96
2022-10-07T02:01:19.176Z,13.00
2022-10-07T02:04:09.427Z,13.02
2022-10-07T02:06:49.160Z,13.02
2022-10-07T02:09:29.607Z,12.97
2022-10-07T02:12:08.981Z,12.87
2022-10-07T02:14:45.434Z,12.90
2022-10-07T02:17:18.817Z,12.95
2022-10-07T02:19:52.019Z,13.00
2022-10-07T02:22:25.789Z,13.01
2022-10-07T02:24:56.062Z,12.97
2022-10-07T02:27:29.301Z,13.01
2022-10-07T02:30:06.697Z,13.05
2022-10-07T02:32:36.241Z,13.00
2022-10-07T02:35:15.436Z,13.04
2022-10-07T02:37:46.882Z,13.07
2022-10-07T02:40:15.172Z,13.01
2022-10-07T02:42:55.374Z,13.00
2022-10-07T02:45:36.472Z,13.00
2022-10-07T02:48:15.279Z,12.99
2022-10-07T02:50:50.088Z,12.98
2022-10-07T02:53:20.547Z,13.02
2022-10-07T02:55:52.617Z,13.05
2022-10-07T02:58:24.301Z,13.01
2022-10-07T03:01:00.072Z,13.07
2022-10-07T03:03:28.832Z,13.04
2022-10-07T03:05:59.991Z,13.04
2022-10-07T03:08:27.885Z,13.07
2022-10-07T03:10:55.930Z,13.07
2022-10-07T03:13:23.394Z,13.08
2022-10-07T03:15:55.418Z,13.10
2022-10-07T03:18:26.271Z,13.10
2022-10-07T03:20:59.988Z,13.09
2022-10-07T03:23:29.121Z,12.96
2022-10-07T03:25:58.604Z,12.84
2022-10-07T03:28:29.811Z,12.76
2022-10-07T03:31:05.423Z,12.76
2022-10-07T03:33:32.759Z,12.76
2022-10-07T03:35:59.495Z,12.73
2022-10-07T03:38:26.630Z,12.77
2022-10-07T03:40:53.381Z,12.78
2022-10-07T03:43:20.370Z,12.78
2022-10-07T03:45:51.177Z,12.81
2022-10-07T03:48:20.290Z,12.88
2022-10-07T03:50:49.343Z,12.92
2022-10-07T03:53:16.894Z,12.94
2022-10-07T03:55:43.859Z,12.97
2022-10-07T03:58:11.563Z,12.99
2022-10-07T04:00:39.734Z,12.99
2022-10-07T04:03:07.418Z,13.00
2022-10-07T04:05:37.151Z,13.01
2022-10-07T04:08:05.072Z,13.02
2022-10-07T04:10:33.691Z,13.04
2022-10-07T04:13:00.524Z,13.01
2022-10-07T04:15:27.854Z,12.99
2022-10-07T04:17:57.277Z,13.00
2022-10-07T04:20:25.805Z,13.02
2022-10-07T04:22:54.815Z,13.02
2022-10-07T04:25:21.805Z,13.01
2022-10-07T04:27:52.192Z,12.93
2022-10-07T04:30:21.642Z,12.91
2022-10-07T04:32:49.062Z,12.93
2022-10-07T04:35:16.271Z,12.95
2022-10-07T04:37:43.363Z,13.00
2022-10-07T04:40:12.247Z,13.02
2022-10-07T04:42:39.296Z,13.05
2022-10-07T04:45:08.210Z,13.06
2022-10-07T04:47:36.852Z,13.00
2022-10-07T04:50:05.348Z,12.99
2022-10-07T04:52:32.415Z,12.98
2022-10-07T04:54:59.338Z,12.90
2022-10-07T04:57:27.638Z,12.87
2022-10-07T04:59:54.571Z,12.79
2022-10-07T05:02:22.605Z,12.75
2022-10-07T05:04:49.539Z,12.67
2022-10-07T05:07:16.542Z,12.42
2022-10-07T05:09:43.449Z,12.15
2022-10-07T05:12:10.227Z,12.14
2022-10-07T05:14:39.688Z,12.21
2022-10-07T05:17:06.865Z,12.10
2022-10-07T05:19:35.497Z,12.13
2022-10-07T05:22:03.101Z,12.17
2022-10-07T05:24:30.713Z,12.31
2022-10-07T05:26:57.794Z,12.43
2022-10-07T05:29:24.585Z,12.53
2022-10-07T05:31:54.997Z,12.63
2022-10-07T05:34:24.875Z,12.69
2022-10-07T05:36:53.440Z,12.74
2022-10-07T05:39:20.280Z,12.81
2022-10-07T05:41:50.593Z,12.83
2022-10-07T05:44:21.776Z,12.86
2022-10-07T05:46:51.336Z,12.90
2022-10-07T05:49:19.983Z,12.90
2022-10-07T05:51:47.019Z,12.95
2022-10-07T05:54:13.786Z,13.00
2022-10-07T05:56:43.086Z,13.10
2022-10-07T05:59:10.279Z,13.12
2022-10-07T06:01:38.619Z,13.14
2022-10-07T06:04:11.728Z,13.21
2022-10-07T06:06:42.833Z,13.30
2022-10-07T06:09:14.180Z,13.41
2022-10-07T06:11:41.201Z,13.48
2022-10-07T06:14:08.451Z,13.44
2022-10-07T06:16:35.332Z,13.37
2022-10-07T06:19:02.243Z,13.37
2022-10-07T06:21:32.201Z,13.42
2022-10-07T06:24:04.684Z,13.35
2022-10-07T06:26:34.381Z,13.26
2022-10-07T06:29:04.516Z,13.13
2022-10-07T06:31:32.183Z,13.00
2022-10-07T06:34:02.928Z,13.06
2022-10-07T06:36:30.993Z,13.23
2022-10-07T06:38:58.328Z,13.28
2022-10-07T06:41:35.812Z,13.36
2022-10-07T06:44:09.286Z,13.55
2022-10-07T06:46:36.465Z,13.72
2022-10-07T06:49:03.683Z,13.89
2022-10-07T06:51:30.670Z,14.12
2022-10-07T06:53:57.616Z,14.36
2022-10-07T06:56:25.247Z,14.67
2022-10-07T06:58:55.543Z,15.23
2022-10-07T07:01:32.044Z,16.00
2022-10-07T07:03:59.717Z,17.06
2022-10-07T07:06:26.540Z,17.62
2022-10-07T07:08:55.430Z,18.15
2022-10-07T07:11:22.648Z,18.52
2022-10-07T07:13:49.728Z,18.90
2022-10-07T07:16:18.713Z,19.54
2022-10-07T07:18:49.776Z,19.07
2022-10-07T07:21:16.612Z,19.05
2022-10-07T07:23:43.556Z,18.97
2022-10-07T07:26:10.386Z,19.27
2022-10-07T07:28:37.351Z,19.00
2022-10-07T07:31:07.428Z,19.08
2022-10-07T07:33:36.431Z,19.46
2022-10-07T07:36:10.109Z,19.64
2022-10-07T07:38:37.289Z,19.79
2022-10-07T07:41:05.419Z,19.83
2022-10-07T07:43:32.185Z,20.01
2022-10-07T07:45:59.207Z,20.13
2022-10-07T07:48:27.062Z,20.25
2022-10-07T07:50:55.529Z,20.66
2022-10-07T07:53:22.610Z,21.09
2022-10-07T07:55:54.897Z,21.27
2022-10-07T07:58:23.542Z,21.51
2022-10-07T08:00:59.582Z,21.64
2022-10-07T08:03:26.893Z,21.76
2022-10-07T08:06:00.981Z,22.01
2022-10-07T08:08:30.063Z,22.40
2022-10-07T08:10:57.599Z,22.69
2022-10-07T08:13:24.493Z,22.81
2022-10-07T08:15:56.296Z,22.86
2022-10-07T08:18:23.440Z,23.14
2022-10-07T08:20:57.818Z,23.02
2022-10-07T08:23:25.772Z,22.78
2022-10-07T08:25:57.974Z,22.60
2022-10-07T08:28:27.618Z,22.62
2022-10-07T08:31:03.623Z,22.54
2022-10-07T08:33:34.628Z,22.37
2022-10-07T08:36:05.578Z,21.95
2022-10-07T08:38:35.158Z,21.96
2022-10-07T08:41:24.126Z,21.56
2022-10-07T08:43:52.082Z,21.46
2022-10-07T08:46:27.599Z,21.78
2022-10-07T08:49:05.276Z,22.03
2022-10-07T08:51:42.454Z,22.27
2022-10-07T08:54:15.622Z,22.15
2022-10-07T08:56:44.596Z,22.03
2022-10-07T08:59:22.502Z,22.08
2022-10-07T09:02:11.042Z,21.90
2022-10-07T09:08:13.673Z,22.79
2022-10-07T09:11:14.075Z,23.16
2022-10-07T09:13:48.737Z,23.52
2022-10-07T09:16:34.656Z,23.97
2022-10-07T09:19:17.075Z,24.33
2022-10-07T09:21:49.365Z,25.15
2022-10-07T09:28:43.333Z,25.86
2022-10-07T09:31:15.974Z,25.44
2022-10-07T09:33:46.253Z,25.01
2022-10-07T09:36:23.609Z,24.78
2022-10-07T09:38:51.611Z,25.48
2022-10-07T09:41:29.071Z,25.39
2022-10-07T09:44:13.202Z,26.27
2022-10-07T09:46:47.418Z,26.75
2022-10-07T09:49:39.970Z,24.80
2022-10-07T09:52:16.630Z,23.68
2022-10-07T09:54:45.987Z,24.02
2022-10-07T09:57:27.808Z,24.18
2022-10-07T10:00:22.941Z,25.05
2022-10-07T10:02:55.207Z,24.63
2022-10-07T10:05:28.762Z,23.99
2022-10-07T10:08:03.195Z,24.82
2022-10-07T10:10:33.560Z,24.96
2022-10-07T10:13:04.278Z,24.77
2022-10-07T10:15:43.817Z,24.31
2022-10-07T10:18:35.549Z,24.15
2022-10-07T10:21:28.154Z,24.81
2022-10-07T10:23:59.202Z,24.90
2022-10-07T10:26:52.728Z,25.34
2022-10-07T10:29:47.617Z,26.21
2022-10-07T10:32:52.133Z,27.31
2022-10-07T10:35:25.583Z,26.76
2022-10-07T10:38:18.454Z,25.61
2022-10-07T10:41:01.259Z,25.57
2022-10-07T10:43:40.912Z,26.62
2022-10-07T10:46:31.837Z,27.68
2022-10-07T10:49:25.384Z,28.94
2022-10-07T10:52:18.274Z,29.94
2022-10-07T10:55:07.432Z,29.90
2022-10-07T10:57:50.830Z,28.89
2022-10-07T11:00:20.936Z,28.34
2022-10-07T11:03:12.285Z,26.92
2022-10-07T11:05:40.907Z,25.67
2022-10-07T11:08:17.583Z,25.04
2022-10-07T11:10:53.112Z,25.14
2022-10-07T11:13:33.849Z,26.98
2022-10-07T11:16:08.869Z,28.04
2022-10-07T11:18:44.299Z,28.93
2022-10-07T11:21:23.333Z,28.52
2022-10-07T11:24:01.562Z,29.41
2022-10-07T11:26:37.445Z,30.28
2022-10-07T11:29:31.148Z,30.91
2022-10-07T11:32:07.483Z,31.14
2022-10-07T11:34:49.857Z,31.36
2022-10-07T11:37:29.389Z,30.98
2022-10-07T11:39:56.555Z,29.86
2022-10-07T11:42:28.723Z,29.01
2022-10-07T11:45:02.288Z,27.97
2022-10-07T11:47:39.976Z,27.78
2022-10-07T11:50:16.482Z,27.37
2022-10-07T11:52:50.052Z,26.72
2022-10-07T11:55:25.499Z,26.50
2022-10-07T11:57:57.139Z,24.53
2022-10-07T12:00:28.993Z,24.65
2022-10-07T12:02:57.115Z,24.11
2022-10-07T12:06:09.458Z,23.54
2022-10-07T12:08:39.490Z,23.62
2022-10-07T12:11:47.703Z,23.41
2022-10-07T12:14:42.650Z,23.02
2022-10-07T12:17:33.842Z,23.40
2022-10-07T12:20:43.768Z,23.21
2022-10-07T12:23:41.629Z,23.59
2022-10-07T12:26:48.980Z,23.54
2022-10-07T12:29:23.258Z,23.71
2022-10-07T12:31:50.742Z,23.82
2022-10-07T12:34:35.871Z,23.74
2022-10-07T12:37:47.128Z,24.00
2022-10-07T12:40:24.583Z,22.97
2022-10-07T12:43:00.711Z,22.52
2022-10-07T12:45:29.969Z,22.52
2022-10-07T12:48:00.277Z,22.77
2022-10-07T12:50:30.101Z,23.06
2022-10-07T12:53:02.107Z,23.24
2022-10-07T12:55:35.959Z,23.03
2022-10-07T12:58:26.930Z,23.21
2022-10-07T13:01:16.585Z,23.30
2022-10-07T13:04:34.454Z,23.17
2022-10-07T13:07:59.145Z,23.28
2022-10-07T13:11:09.635Z,22.97
2022-10-07T13:13:47.071Z,22.45
2022-10-07T13:16:26.246Z,22.54
2022-10-07T13:19:04.339Z,22.48
2022-10-07T13:21:39.493Z,22.67
2022-10-07T13:24:15.126Z,22.87
2022-10-07T13:26:45.166Z,22.97
2022-10-07T13:29:24.595Z,23.00
2022-10-07T13:32:07.292Z,22.96
2022-10-07T13:34:34.907Z,23.02
2022-10-07T13:37:18.395Z,22.72
2022-10-07T13:39:45.397Z,22.65
2022-10-07T13:42:16.926Z,22.75
2022-10-07T13:44:46.477Z,22.83
2022-10-07T13:47:20.570Z,22.72
2022-10-07T13:49:53.133Z,22.69
2022-10-07T13:52:29.593Z,22.68
2022-10-07T13:54:57.555Z,22.68
2022-10-07T13:57:29.653Z,22.69
2022-10-07T13:59:58.166Z,22.69
2022-10-07T14:02:25.459Z,22.40
2022-10-07T14:05:00.236Z,22.46
2022-10-07T14:07:28.719Z,22.52
2022-10-07T14:10:06.298Z,22.59
2022-10-07T14:12:41.112Z,22.60
2022-10-07T14:15:15.902Z,22.71
2022-10-07T14:17:46.245Z,22.70
2022-10-07T14:20:23.920Z,22.72
2022-10-07T14:22:54.713Z,22.69
2022-10-07T14:25:25.125Z,22.64
2022-10-07T14:28:05.658Z,22.65
2022-10-07T14:30:56.659Z,22.56
2022-10-07T14:33:37.501Z,22.44
2022-10-07T14:36:30.278Z,22.28
2022-10-07T14:38:57.417Z,22.10
2022-10-07T14:41:28.515Z,21.72
2022-10-07T14:43:58.671Z,21.80
2022-10-07T14:46:28.011Z,21.84
2022-10-07T14:48:55.430Z,21.91
2022-10-07T14:51:26.546Z,21.91
2022-10-07T14:54:00.457Z,21.83
2022-10-07T14:56:32.307Z,21.85
2022-10-07T14:59:00.975Z,21.85
2022-10-07T15:01:29.189Z,21.77
2022-10-07T15:03:56.532Z,21.76
2022-10-07T15:06:23.748Z,21.71
2022-10-07T15:08:50.615Z,21.70
2022-10-07T15:11:20.806Z,21.62
2022-10-07T15:13:49.435Z,21.63
2022-10-07T15:16:20.919Z,21.61
2022-10-07T15:18:52.459Z,21.58
2022-10-07T15:21:22.130Z,21.56
2022-10-07T15:23:52.960Z,21.47
2022-10-07T15:26:20.208Z,21.44
2022-10-07T15:28:49.820Z,21.44
2022-10-07T15:31:18.478Z,21.41
2022-10-07T15:33:45.346Z,21.42
2022-10-07T15:36:12.296Z,21.39
2022-10-07T15:38:39.449Z,21.29
2022-10-07T15:41:07.704Z,21.19
2022-10-07T15:43:35.164Z,21.12
2022-10-07T15:46:02.204Z,21.05
2022-10-07T15:48:30.962Z,20.97
2022-10-07T15:50:58.904Z,20.87
2022-10-07T15:53:25.699Z,20.78
2022-10-07T15:55:54.348Z,20.73
2022-10-07T15:58:23.601Z,20.69
2022-10-07T16:00:58.860Z,20.62
2022-10-07T16:03:26.341Z,20.60
2022-10-07T16:05:59.619Z,20.51
2022-10-07T16:08:26.775Z,20.35
2022-10-07T16:10:53.646Z,20.19
2022-10-07T16:13:20.482Z,20.13
2022-10-07T16:15:57.143Z,20.13
2022-10-07T16:35:38.634Z,19.39
2022-10-07T16:38:05.408Z,19.21
2022-10-07T16:40:32.452Z,19.13
2022-10-07T16:42:59.508Z,19.08
2022-10-07T16:45:26.686Z,19.04
2022-10-07T16:47:55.316Z,19.01
2022-10-07T16:50:22.520Z,19.01
2022-10-07T16:52:50.693Z,18.97
2022-10-07T16:55:17.426Z,18.90
2022-10-07T16:57:47.735Z,18.63
2022-10-07T17:00:17.567Z,18.55
2022-10-07T17:02:44.353Z,18.47
2022-10-07T17:05:11.587Z,18.48
2022-10-07T17:07:38.314Z,18.40
2022-10-07T17:10:08.549Z,18.39
2022-10-07T17:12:35.711Z,18.33
2022-10-07T17:15:05.469Z,18.26
2022-10-07T17:17:32.351Z,18.25
2022-10-07T17:19:59.335Z,18.12
2022-10-07T17:22:26.226Z,17.94
2022-10-07T17:24:53.682Z,17.85
2022-10-07T17:27:21.797Z,17.84
2022-10-07T17:29:48.617Z,17.86
2022-10-07T17:32:15.387Z,17.82
2022-10-07T17:34:45.415Z,17.67
2022-10-07T17:37:13.368Z,17.60
2022-10-07T17:39:40.121Z,17.57
2022-10-07T17:42:06.970Z,17.45
2022-10-07T17:44:35.334Z,17.17
2022-10-07T17:47:02.281Z,17.12
2022-10-07T17:49:29.977Z,17.16
2022-10-07T17:51:57.012Z,17.21
2022-10-07T17:54:24.083Z,17.24
2022-10-07T17:56:50.902Z,17.29
2022-10-07T17:59:17.710Z,17.32
2022-10-07T18:01:45.871Z,17.32
2022-10-07T18:04:17.097Z,17.29
2022-10-07T18:06:46.773Z,17.27
2022-10-07T18:09:16.580Z,17.24
2022-10-07T18:11:43.352Z,17.15
2022-10-07T18:14:10.230Z,17.09
2022-10-07T18:16:37.038Z,16.91
2022-10-07T18:19:05.331Z,16.81
2022-10-07T18:21:32.186Z,16.77
2022-10-07T18:23:59.093Z,16.77
2022-10-07T18:26:26.242Z,16.79
2022-10-07T18:28:55.952Z,16.78
2022-10-07T18:31:27.002Z,16.77
2022-10-07T18:33:54.099Z,16.75
2022-10-07T18:36:22.545Z,16.69
2022-10-07T18:38:49.499Z,16.62
2022-10-07T18:41:18.529Z,16.56
2022-10-07T18:43:46.929Z,16.55
2022-10-07T18:46:16.374Z,16.55
2022-10-07T18:48:45.780Z,16.53
2022-10-07T18:51:14.351Z,16.41
2022-10-07T18:53:45.282Z,16.35
2022-10-07T18:56:15.767Z,16.35
2022-10-07T18:58:45.289Z,16.37
2022-10-07T19:01:15.157Z,16.42
2022-10-07T19:03:43.086Z,16.43
2022-10-07T19:06:12.895Z,16.48
2022-10-07T19:08:41.841Z,16.44
2022-10-07T19:11:12.571Z,16.43
2022-10-07T19:13:39.356Z,16.34
2022-10-07T19:16:06.777Z,16.35
2022-10-07T19:18:34.939Z,16.31
2022-10-07T19:21:01.780Z,16.32
2022-10-07T19:23:29.387Z,16.32
2022-10-07T19:25:59.267Z,16.34
2022-10-07T19:28:26.798Z,16.31
2022-10-07T19:30:54.779Z,16.30
2022-10-07T19:36:57.862Z,16.07
2022-10-07T19:39:24.812Z,16.13
2022-10-07T19:41:53.166Z,16.15
2022-10-07T19:44:20.047Z,16.17
2022-10-07T19:46:50.340Z,16.10
2022-10-07T19:49:17.183Z,15.92
2022-10-07T19:51:44.263Z,15.84
2022-10-07T19:54:11.584Z,15.82
2022-10-07T19:56:40.438Z,15.81
2022-10-07T19:59:11.702Z,15.72
2022-10-07T20:01:41.384Z,15.67
2022-10-07T20:04:12.418Z,15.70
2022-10-07T20:06:40.566Z,15.77
2022-10-07T20:09:11.217Z,15.82
2022-10-07T20:11:38.266Z,15.85
2022-10-07T20:14:06.107Z,15.80
2022-10-07T20:16:34.752Z,15.78
2022-10-07T20:19:04.891Z,15.79
2022-10-07T20:21:34.356Z,15.80
2022-10-07T20:24:02.549Z,15.82
2022-10-07T20:26:32.399Z,15.78
2022-10-07T20:29:01.921Z,15.76
2022-10-07T20:31:33.191Z,15.77
2022-10-07T20:34:03.125Z,15.73
2022-10-07T20:36:32.999Z,15.69
2022-10-07T20:39:02.745Z,15.66
2022-10-07T20:41:31.096Z,15.60
2022-10-07T20:43:57.958Z,15.58
2022-10-07T20:46:25.152Z,15.61
2022-10-07T20:48:52.908Z,15.70
2022-10-07T20:51:21.866Z,15.72
2022-10-07T20:53:49.433Z,15.64
2022-10-07T20:56:17.249Z,15.61
2022-10-07T20:58:44.853Z,15.59
2022-10-07T21:01:13.831Z,15.56
2022-10-07T21:03:40.896Z,15.47
2022-10-07T21:06:08.219Z,15.47
2022-10-07T21:08:36.721Z,15.43
2022-10-07T21:11:05.687Z,15.40
2022-10-07T21:13:32.565Z,15.40
2022-10-07T21:15:59.598Z,15.39
2022-10-07T21:18:26.413Z,15.44
2022-10-07T21:20:57.043Z,15.47
2022-10-07T21:23:25.470Z,15.46
2022-10-07T21:25:53.733Z,15.41
2022-10-07T21:28:20.917Z,15.30
2022-10-07T21:30:55.775Z,15.31
2022-10-07T21:33:22.643Z,15.27
2022-10-07T21:35:49.665Z,15.20
2022-10-07T21:38:17.075Z,15.17
2022-10-07T21:40:43.881Z,15.22
2022-10-07T21:43:12.342Z,15.24
2022-10-07T21:45:39.487Z,15.25
2022-10-07T21:48:06.248Z,15.29
2022-10-07T21:50:33.186Z,15.26
2022-10-07T21:52:59.962Z,15.30
2022-10-07T21:55:26.885Z,15.34
2022-10-07T21:57:53.637Z,15.37
2022-10-07T22:00:21.907Z,15.42
2022-10-07T22:02:49.727Z,15.47
2022-10-07T22:05:16.889Z,15.45
2022-10-07T22:07:43.688Z,15.43
2022-10-07T22:10:10.718Z,15.32
2022-10-07T22:12:37.537Z,14.93
2022-10-07T22:15:05.802Z,14.71
2022-10-07T22:17:34.236Z,14.74
2022-10-07T22:20:01.249Z,14.89
2022-10-07T22:22:28.116Z,15.00
2022-10-07T22:24:54.918Z,15.09
2022-10-07T22:27:21.687Z,15.12
2022-10-07T22:29:49.023Z,15.17
2022-10-07T22:32:16.448Z,14.88
2022-10-07T22:34:44.617Z,14.84
2022-10-07T22:37:11.387Z,14.90
2022-10-07T22:39:38.169Z,15.00
2022-10-07T22:42:05.166Z,14.83
2022-10-07T22:44:31.923Z,14.93
2022-10-07T22:47:00.293Z,14.99
2022-10-07T22:49:30.067Z,15.05
2022-10-07T22:51:59.211Z,15.06
2022-10-07T22:54:26.524Z,15.03
2022-10-07T22:56:53.515Z,15.06
2022-10-07T22:59:20.547Z,15.07
2022-10-07T23:01:47.355Z,15.03
2022-10-07T23:04:14.116Z,15.00
2022-10-07T23:06:41.079Z,14.93
2022-10-07T23:09:09.391Z,14.92
2022-10-07T23:11:36.126Z,14.86
2022-10-07T23:14:03.126Z,14.89
2022-10-07T23:16:30.259Z,14.96
2022-10-07T23:18:58.671Z,15.06
2022-10-07T23:21:28.242Z,15.11
2022-10-07T23:24:00.645Z,15.02
2022-10-07T23:26:31.624Z,14.95
2022-10-07T23:29:00.368Z,14.98
2022-10-07T23:31:30.272Z,14.95
2022-10-07T23:34:00.036Z,14.98
2022-10-07T23:36:28.422Z,15.05
2022-10-07T23:38:56.037Z,15.15
2022-10-07T23:41:26.164Z,15.22
2022-10-07T23:43:57.094Z,15.26
2022-10-07T23:46:26.461Z,15.31
2022-10-07T23:48:54.531Z,15.35
2022-10-07T23:51:25.478Z,15.39
2022-10-07T23:53:52.398Z,15.46
2022-10-07T23:56:19.229Z,15.46
2022-10-07T23:58:46.170Z,15.50
